Time;durP1;ratioP1;P1;durP2;ratioP2;P2;SDS_P1;SDS_P2;PMS_P1;PMS_P2;Temp;Humidity;BMP_temperature;BMP_pressure;BME280_temperature;BME280_humidity;BME280_pressure;Samples;Min_cycle;Max_cycle;Signal;HPM_P1;HPM_P2
2021/12/06 00:00:30;;;;;;;;;;;20.50;39.50;;;;;;5053023;28;20353;-53
2021/12/06 00:02:58;;;;;;;;;;;20.40;39.40;;;;;;5068494;28;20365;-49
2021/12/06 00:05:24;;;;;;;;;;;20.50;39.50;;;;;;5068261;28;20346;-49
2021/12/06 00:07:51;;;;;;;;;;;20.50;39.50;;;;;;5053278;28;19947;-50
2021/12/06 00:10:18;;;;;;;;;;;20.50;39.50;;;;;;5068497;28;19929;-51
2021/12/06 00:12:45;;;;;;;;;;;20.50;39.50;;;;;;5051792;28;19932;-52
2021/12/06 00:15:13;;;;;;;;;;;20.50;39.50;;;;;;5084998;28;20297;-53
2021/12/06 00:17:40;;;;;;;;;;;20.50;39.50;;;;;;5068550;28;19955;-52
2021/12/06 00:20:07;;;;;;;;;;;20.40;39.40;;;;;;5068658;28;20024;-48
2021/12/06 00:22:34;;;;;;;;;;;20.50;39.50;;;;;;5068552;28;19928;-51
2021/12/06 00:25:01;;;;;;;;;;;20.40;39.30;;;;;;5052985;28;20330;-50
2021/12/06 00:27:27;;;;;;;;;;;20.50;39.40;;;;;;5068188;28;19935;-49
2021/12/06 00:29:54;;;;;;;;;;;20.40;39.30;;;;;;5085045;28;19944;-49
2021/12/06 00:32:23;;;;;;;;;;;20.50;39.40;;;;;;5067909;28;19925;-58
2021/12/06 00:34:49;;;;;;;;;;;20.40;39.30;;;;;;5057344;28;19932;-50
2021/12/06 00:37:19;;;;;;;;;;;20.50;39.40;;;;;;5052504;28;19925;-51
2021/12/06 00:39:45;;;;;;;;;;;20.40;39.30;;;;;;5050418;28;19978;-50
2021/12/06 00:42:12;;;;;;;;;;;20.50;39.40;;;;;;5051842;28;19956;-51
2021/12/06 00:44:39;;;;;;;;;;;20.40;39.30;;;;;;5066361;28;20019;-52
2021/12/06 00:47:07;;;;;;;;;;;20.40;39.30;;;;;;5067284;28;19928;-51
2021/12/06 00:49:35;;;;;;;;;;;20.40;39.30;;;;;;5051528;28;19931;-49
2021/12/06 00:52:01;;;;;;;;;;;20.40;39.30;;;;;;5051726;28;19929;-50
2021/12/06 00:54:29;;;;;;;;;;;20.50;39.30;;;;;;5065470;28;19943;-51
2021/12/06 00:56:56;;;;;;;;;;;20.40;39.30;;;;;;5066701;28;20020;-56
2021/12/06 00:59:22;;;;;;;;;;;20.40;39.30;;;;;;5065789;28;19932;-52
2021/12/06 01:01:51;;;;;;;;;;;20.40;39.30;;;;;;5066884;28;20333;-54
2021/12/06 01:04:17;;;;;;;;;;;20.40;39.30;;;;;;5066052;28;19929;-54
2021/12/06 01:06:45;;;;;;;;;;;20.40;39.30;;;;;;5052394;28;19983;-49
2021/12/06 01:09:12;;;;;;;;;;;20.40;39.20;;;;;;5050260;28;19983;-54
2021/12/06 01:11:38;;;;;;;;;;;20.40;39.30;;;;;;5048907;28;19931;-52
2021/12/06 01:14:05;;;;;;;;;;;20.40;39.20;;;;;;5049866;28;20138;-51
2021/12/06 01:16:32;;;;;;;;;;;20.40;39.20;;;;;;5066293;28;19931;-51
2021/12/06 01:18:58;;;;;;;;;;;20.40;39.20;;;;;;5066350;28;19924;-50
2021/12/06 01:21:32;;;;;;;;;;;20.40;39.20;;;;;;5066458;28;19925;-52
2021/12/06 01:24:01;;;;;;;;;;;20.40;39.20;;;;;;5066722;28;20370;-49
2021/12/06 01:29:35;;;;;;;;;;;20.40;39.20;;;;;;5082977;28;19976;-56
2021/12/06 01:32:04;;;;;;;;;;;20.40;39.20;;;;;;5051252;28;19925;-56
2021/12/06 01:40:10;;;;;;;;;;;20.40;39.20;;;;;;5083077;28;19924;-51
2021/12/06 01:42:36;;;;;;;;;;;20.50;39.20;;;;;;5066179;28;20031;-55
2021/12/06 01:45:03;;;;;;;;;;;20.40;39.10;;;;;;5049990;28;19931;-49
2021/12/06 01:47:30;;;;;;;;;;;20.40;39.10;;;;;;5051707;28;19929;-51
2021/12/06 01:49:57;;;;;;;;;;;20.40;39.20;;;;;;5083715;28;19972;-56
2021/12/06 01:52:24;;;;;;;;;;;20.40;39.10;;;;;;5051054;28;19951;-52
2021/12/06 01:54:51;;;;;;;;;;;20.40;39.10;;;;;;5066546;28;19948;-50
2021/12/06 01:57:19;;;;;;;;;;;20.40;39.10;;;;;;5050779;28;19928;-53
2021/12/06 01:59:46;;;;;;;;;;;20.40;39.10;;;;;;5063677;28;19929;-53
2021/12/06 02:02:13;;;;;;;;;;;20.40;39.10;;;;;;5065486;28;19931;-54
2021/12/06 02:04:40;;;;;;;;;;;20.40;39.10;;;;;;5066444;28;20015;-54
2021/12/06 02:07:07;;;;;;;;;;;20.40;39.10;;;;;;5066596;28;19988;-54
2021/12/06 02:09:34;;;;;;;;;;;20.40;39.10;;;;;;5066783;28;19936;-52
2021/12/06 02:12:03;;;;;;;;;;;20.40;39.10;;;;;;5065287;28;21472;-53
2021/12/06 02:14:40;;;;;;;;;;;20.40;39.10;;;;;;5066435;28;19975;-55
2021/12/06 02:17:12;;;;;;;;;;;20.40;39.00;;;;;;5058054;28;20354;-51
2021/12/06 02:19:41;;;;;;;;;;;20.40;39.00;;;;;;5049920;28;20282;-53
2021/12/06 02:22:09;;;;;;;;;;;20.40;39.00;;;;;;5066608;28;20378;-49
2021/12/06 02:24:38;;;;;;;;;;;20.40;39.00;;;;;;5066444;28;19935;-47
2021/12/06 02:27:05;;;;;;;;;;;20.40;39.00;;;;;;5066196;28;20028;-51
2021/12/06 02:29:31;;;;;;;;;;;20.40;39.00;;;;;;5065484;28;19929;-50
2021/12/06 02:31:58;;;;;;;;;;;20.40;39.00;;;;;;5048409;28;19928;-50
2021/12/06 02:34:25;;;;;;;;;;;20.40;39.00;;;;;;5066322;28;20025;-53
2021/12/06 02:36:51;;;;;;;;;;;20.40;39.00;;;;;;5050898;28;19929;-49
2021/12/06 02:39:23;;;;;;;;;;;20.40;39.00;;;;;;5064527;28;19931;-50
2021/12/06 02:41:52;;;;;;;;;;;20.40;39.60;;;;;;5065020;28;20294;-55
2021/12/06 02:44:19;;;;;;;;;;;20.40;39.00;;;;;;5050330;28;19932;-49
2021/12/06 02:46:45;;;;;;;;;;;20.40;38.90;;;;;;5065784;28;19931;-53
2021/12/06 02:49:12;;;;;;;;;;;20.40;38.90;;;;;;5066298;28;19929;-52
2021/12/06 02:51:39;;;;;;;;;;;20.40;38.90;;;;;;5066192;28;20016;-52
2021/12/06 02:54:06;;;;;;;;;;;20.40;38.90;;;;;;5056713;28;19932;-52
2021/12/06 02:56:39;;;;;;;;;;;20.40;38.90;;;;;;5029558;28;19983;-54
2021/12/06 02:59:07;;;;;;;;;;;20.40;38.90;;;;;;5065933;28;19937;-53
2021/12/06 03:01:35;;;;;;;;;;;20.40;38.90;;;;;;5065312;28;19971;-48
2021/12/06 03:04:02;;;;;;;;;;;20.40;38.90;;;;;;5065834;28;20365;-52
2021/12/06 03:06:29;;;;;;;;;;;20.40;38.90;;;;;;5066400;28;19952;-51
2021/12/06 03:09:02;;;;;;;;;;;20.40;38.90;;;;;;5081856;28;20339;-56
2021/12/06 03:11:41;;;;;;;;;;;20.40;38.90;;;;;;5047722;28;19987;-51
2021/12/06 03:14:10;;;;;;;;;;;20.40;38.90;;;;;;5066509;28;19925;-54
2021/12/06 03:16:37;;;;;;;;;;;20.40;38.90;;;;;;5053052;28;20031;-52
2021/12/06 03:19:04;;;;;;;;;;;20.40;38.80;;;;;;5068195;28;19935;-53
2021/12/06 03:21:31;;;;;;;;;;;20.40;38.80;;;;;;5069569;28;19971;-50
2021/12/06 03:23:58;;;;;;;;;;;20.40;38.80;;;;;;5052883;28;19994;-53
2021/12/06 03:26:25;;;;;;;;;;;20.40;38.80;;;;;;5052742;28;19998;-52
2021/12/06 03:28:52;;;;;;;;;;;20.40;38.80;;;;;;5053178;28;19987;-53
2021/12/06 03:31:20;;;;;;;;;;;20.40;38.80;;;;;;5054138;28;20059;-53
2021/12/06 03:33:48;;;;;;;;;;;20.40;38.80;;;;;;5069168;28;19931;-49
2021/12/06 03:36:15;;;;;;;;;;;20.40;38.80;;;;;;5069301;28;20011;-55
2021/12/06 03:38:42;;;;;;;;;;;20.40;38.80;;;;;;5068388;28;19976;-51
2021/12/06 03:41:09;;;;;;;;;;;20.40;38.80;;;;;;5052475;28;20401;-50
2021/12/06 03:43:35;;;;;;;;;;;20.40;38.80;;;;;;5068026;28;20299;-51
2021/12/06 03:46:02;;;;;;;;;;;20.40;38.70;;;;;;5052482;28;19982;-54
2021/12/06 03:48:30;;;;;;;;;;;20.40;38.70;;;;;;5051827;28;19931;-56
2021/12/06 03:50:57;;;;;;;;;;;20.40;38.70;;;;;;5067587;28;19925;-50
2021/12/06 03:53:24;;;;;;;;;;;20.40;38.70;;;;;;5067019;28;20016;-57
2021/12/06 03:55:50;;;;;;;;;;;20.40;38.80;;;;;;5050909;28;19931;-53
2021/12/06 03:58:17;;;;;;;;;;;20.40;38.70;;;;;;5050904;28;20323;-52
2021/12/06 04:00:44;;;;;;;;;;;20.40;38.70;;;;;;5068064;28;20029;-56
2021/12/06 04:03:11;;;;;;;;;;;20.40;38.70;;;;;;5051414;28;19933;-53
2021/12/06 04:05:40;;;;;;;;;;;20.40;38.70;;;;;;5068940;28;19975;-50
2021/12/06 04:08:07;;;;;;;;;;;20.40;38.70;;;;;;5068765;28;19936;-53
2021/12/06 04:10:34;;;;;;;;;;;20.40;38.70;;;;;;5052121;28;20281;-53
2021/12/06 04:13:00;;;;;;;;;;;20.40;38.70;;;;;;5069262;28;19967;-55
2021/12/06 04:15:29;;;;;;;;;;;20.40;38.70;;;;;;5052651;28;20027;-51
2021/12/06 04:17:55;;;;;;;;;;;20.40;38.70;;;;;;5052691;28;19932;-52
2021/12/06 04:20:22;;;;;;;;;;;20.40;38.70;;;;;;5051447;28;20398;-50
2021/12/06 04:22:50;;;;;;;;;;;20.40;38.70;;;;;;5086038;28;19921;-57
2021/12/06 04:25:18;;;;;;;;;;;20.40;38.70;;;;;;5051816;28;19936;-53
2021/12/06 04:27:51;;;;;;;;;;;20.40;38.60;;;;;;5068371;28;19920;-51
2021/12/06 04:30:18;;;;;;;;;;;20.40;38.60;;;;;;5052830;28;19936;-50
2021/12/06 04:32:44;;;;;;;;;;;20.40;38.60;;;;;;5051393;28;19956;-53
2021/12/06 04:35:11;;;;;;;;;;;20.30;38.50;;;;;;5051027;28;20434;-52
2021/12/06 04:37:38;;;;;;;;;;;20.40;38.60;;;;;;5067869;28;19932;-54
2021/12/06 04:40:07;;;;;;;;;;;20.40;38.60;;;;;;5067816;28;20231;-53
2021/12/06 04:42:33;;;;;;;;;;;20.40;38.60;;;;;;5049368;28;19935;-53
2021/12/06 04:45:00;;;;;;;;;;;20.40;38.60;;;;;;5052404;28;19932;-49
2021/12/06 04:47:27;;;;;;;;;;;20.30;38.50;;;;;;5068246;28;19972;-52
2021/12/06 04:49:54;;;;;;;;;;;20.40;38.60;;;;;;5052137;28;20354;-54
2021/12/06 04:52:20;;;;;;;;;;;20.40;38.60;;;;;;5051839;28;20286;-51
2021/12/06 04:54:49;;;;;;;;;;;20.40;38.60;;;;;;5080492;28;20039;-49
2021/12/06 04:57:18;;;;;;;;;;;20.40;38.50;;;;;;5058715;28;19936;-50
2021/12/06 04:59:46;;;;;;;;;;;20.30;38.40;;;;;;5052603;28;19931;-53
2021/12/06 05:02:14;;;;;;;;;;;20.30;38.40;;;;;;5051406;28;20306;-51
2021/12/06 05:04:43;;;;;;;;;;;20.30;38.40;;;;;;5066928;28;19932;-49
2021/12/06 05:07:11;;;;;;;;;;;20.40;38.50;;;;;;5050865;28;19935;-52
2021/12/06 05:09:38;;;;;;;;;;;20.40;38.50;;;;;;5052234;28;19924;-51
2021/12/06 05:12:06;;;;;;;;;;;20.30;38.40;;;;;;5066132;28;19925;-48
2021/12/06 05:14:34;;;;;;;;;;;20.30;38.40;;;;;;5046598;28;20031;-50
2021/12/06 05:17:03;;;;;;;;;;;20.30;38.40;;;;;;5050135;28;19929;-51
2021/12/06 05:19:30;;;;;;;;;;;20.30;38.40;;;;;;5050021;28;19964;-54
2021/12/06 05:21:57;;;;;;;;;;;20.40;38.50;;;;;;5066763;28;19975;-53
2021/12/06 05:24:24;;;;;;;;;;;20.30;38.40;;;;;;5051196;28;20032;-52
2021/12/06 05:26:50;;;;;;;;;;;20.30;38.40;;;;;;5051947;28;19925;-53
2021/12/06 05:29:18;;;;;;;;;;;20.40;38.50;;;;;;5046953;28;20038;-54
2021/12/06 05:31:54;;;;;;;;;;;20.30;38.30;;;;;;5048365;28;19941;-50
2021/12/06 05:34:28;;;;;;;;;;;20.30;38.30;;;;;;5050318;28;19929;-48
2021/12/06 05:36:55;;;;;;;;;;;20.30;38.30;;;;;;5050450;28;20019;-53
2021/12/06 05:39:22;;;;;;;;;;;20.30;38.30;;;;;;5049863;28;19951;-48
2021/12/06 05:41:49;;;;;;;;;;;20.30;38.40;;;;;;5066372;28;19961;-52
2021/12/06 05:44:16;;;;;;;;;;;20.30;38.40;;;;;;5049282;28;19936;-54
2021/12/06 05:46:43;;;;;;;;;;;20.30;38.30;;;;;;5082428;28;19990;-52
2021/12/06 05:49:11;;;;;;;;;;;20.30;38.30;;;;;;5083344;28;20032;-54
2021/12/06 05:51:37;;;;;;;;;;;20.30;38.40;;;;;;5083351;28;20071;-55
2021/12/06 05:54:04;;;;;;;;;;;20.30;38.30;;;;;;5049500;28;20001;-54
2021/12/06 05:56:31;;;;;;;;;;;20.30;38.90;;;;;;5066835;28;19925;-57
2021/12/06 05:58:58;;;;;;;;;;;20.30;38.30;;;;;;5065919;28;19925;-52
2021/12/06 06:01:29;;;;;;;;;;;20.30;38.30;;;;;;5047810;28;19925;-54
2021/12/06 06:04:00;;;;;;;;;;;20.30;38.30;;;;;;5050925;28;20285;-53
2021/12/06 06:06:29;;;;;;;;;;;20.30;38.30;;;;;;5051058;28;19931;-53
2021/12/06 06:08:55;;;;;;;;;;;20.30;38.30;;;;;;5051312;28;19991;-55
2021/12/06 06:11:22;;;;;;;;;;;20.30;38.30;;;;;;5065714;28;19924;-53
2021/12/06 06:13:49;;;;;;;;;;;20.30;38.30;;;;;;5066093;28;20412;-51
2021/12/06 06:16:19;;;;;;;;;;;20.40;38.30;;;;;;5049501;28;19925;-50
2021/12/06 06:18:46;;;;;;;;;;;20.30;38.20;;;;;;5066205;28;19925;-54
2021/12/06 06:21:13;;;;;;;;;;;20.30;38.20;;;;;;5049145;28;20015;-50
2021/12/06 06:23:41;;;;;;;;;;;20.30;38.20;;;;;;5066147;28;19931;-51
2021/12/06 06:26:08;;;;;;;;;;;20.40;38.30;;;;;;5065884;28;20374;-50
2021/12/06 06:28:35;;;;;;;;;;;20.30;38.20;;;;;;5051071;28;19929;-48
2021/12/06 06:31:02;;;;;;;;;;;20.30;38.20;;;;;;5050135;28;19957;-55
2021/12/06 06:33:28;;;;;;;;;;;20.30;38.20;;;;;;5066165;28;20004;-51
2021/12/06 06:35:55;;;;;;;;;;;20.30;38.20;;;;;;5050931;28;19929;-53
2021/12/06 06:38:22;;;;;;;;;;;20.30;38.20;;;;;;5042074;28;20468;-55
2021/12/06 06:40:51;;;;;;;;;;;20.30;38.20;;;;;;5077814;28;19933;-53
2021/12/06 06:43:17;;;;;;;;;;;20.30;38.20;;;;;;5049422;28;20026;-53
2021/12/06 06:45:44;;;;;;;;;;;20.30;38.20;;;;;;5066181;28;20373;-48
2021/12/06 06:48:11;;;;;;;;;;;20.30;38.10;;;;;;5070202;28;19931;-55
2021/12/06 06:50:38;;;;;;;;;;;20.30;38.20;;;;;;5068774;28;19924;-52
2021/12/06 06:53:05;;;;;;;;;;;20.30;38.10;;;;;;5053629;28;19929;-51
2021/12/06 06:55:31;;;;;;;;;;;20.30;38.10;;;;;;5061139;28;19929;-53
2021/12/06 06:57:59;;;;;;;;;;;20.30;38.10;;;;;;5055285;28;20023;-49
2021/12/06 07:00:27;;;;;;;;;;;20.30;38.10;;;;;;5052960;28;19931;-49
2021/12/06 07:02:54;;;;;;;;;;;20.30;38.10;;;;;;5053132;28;19928;-52
2021/12/06 07:05:21;;;;;;;;;;;20.30;38.10;;;;;;5075829;28;19924;-53
2021/12/06 07:07:48;;;;;;;;;;;20.30;38.10;;;;;;5070518;28;20251;-54
2021/12/06 07:10:14;;;;;;;;;;;20.30;38.10;;;;;;5070127;28;20038;-48
2021/12/06 07:12:45;;;;;;;;;;;20.30;38.10;;;;;;5057946;28;20008;-53
2021/12/06 07:15:14;;;;;;;;;;;20.30;38.10;;;;;;5076247;28;20365;-50
2021/12/06 07:17:41;;;;;;;;;;;20.30;38.10;;;;;;5085514;28;20428;-55
2021/12/06 07:20:08;;;;;;;;;;;20.30;38.10;;;;;;5052441;28;20274;-49
2021/12/06 07:22:35;;;;;;;;;;;20.30;38.10;;;;;;5056277;28;19933;-50
2021/12/06 07:25:02;;;;;;;;;;;20.30;38.10;;;;;;5059652;28;19939;-54
2021/12/06 07:27:28;;;;;;;;;;;20.30;38.10;;;;;;5076242;28;20015;-50
2021/12/06 07:29:55;;;;;;;;;;;20.30;38.10;;;;;;5069961;28;20015;-50
2021/12/06 07:32:23;;;;;;;;;;;20.30;38.00;;;;;;5067059;28;20343;-51
2021/12/06 07:34:51;;;;;;;;;;;20.30;38.00;;;;;;5057573;28;19929;-56
2021/12/06 07:37:18;;;;;;;;;;;20.30;38.00;;;;;;5068782;28;19929;-55
2021/12/06 07:39:44;;;;;;;;;;;20.30;38.00;;;;;;5052917;28;19929;-53
2021/12/06 07:42:12;;;;;;;;;;;20.30;38.00;;;;;;5053255;28;19935;-50
2021/12/06 07:44:39;;;;;;;;;;;20.30;38.00;;;;;;5085362;28;19924;-54
2021/12/06 07:47:06;;;;;;;;;;;20.30;38.00;;;;;;5067982;28;20352;-55
2021/12/06 07:49:34;;;;;;;;;;;20.30;38.00;;;;;;5067641;28;19925;-54
2021/12/06 07:52:01;;;;;;;;;;;20.30;38.00;;;;;;5068785;28;19964;-52
2021/12/06 07:54:28;;;;;;;;;;;20.30;38.00;;;;;;5053473;28;19971;-56
2021/12/06 07:56:55;;;;;;;;;;;20.30;38.00;;;;;;5067493;28;19991;-52
2021/12/06 07:59:22;;;;;;;;;;;20.30;38.00;;;;;;5050227;28;19929;-50
2021/12/06 08:01:48;;;;;;;;;;;20.30;38.00;;;;;;5069845;28;19925;-54
2021/12/06 08:04:15;;;;;;;;;;;20.30;38.00;;;;;;5069547;28;19933;-50
2021/12/06 08:06:43;;;;;;;;;;;20.30;38.00;;;;;;5054364;28;20023;-53
2021/12/06 08:09:10;;;;;;;;;;;20.30;37.90;;;;;;5050309;28;19979;-55
2021/12/06 08:11:37;;;;;;;;;;;20.30;37.90;;;;;;5068815;28;19925;-52
2021/12/06 08:14:04;;;;;;;;;;;20.30;37.90;;;;;;5075677;28;19936;-51
2021/12/06 08:16:31;;;;;;;;;;;20.30;37.90;;;;;;5067023;28;19925;-53
2021/12/06 08:18:59;;;;;;;;;;;20.30;37.90;;;;;;5067894;28;19964;-56
2021/12/06 08:21:26;;;;;;;;;;;20.30;38.00;;;;;;5045635;28;20362;-49
2021/12/06 08:23:54;;;;;;;;;;;20.30;38.00;;;;;;5065001;28;19941;-50
2021/12/06 08:26:21;;;;;;;;;;;20.30;38.00;;;;;;5071756;28;19935;-56
2021/12/06 08:28:49;;;;;;;;;;;20.30;38.00;;;;;;5055447;28;19933;-46
2021/12/06 08:31:16;;;;;;;;;;;20.30;38.00;;;;;;5054263;28;19929;-54
2021/12/06 08:33:43;;;;;;;;;;;20.30;38.00;;;;;;5067742;28;19931;-47
2021/12/06 08:36:10;;;;;;;;;;;20.30;38.00;;;;;;5047852;28;20023;-50
2021/12/06 08:38:36;;;;;;;;;;;20.30;38.10;;;;;;5050046;28;19935;-48
2021/12/06 08:41:06;;;;;;;;;;;20.30;38.10;;;;;;5056170;28;20259;-55
2021/12/06 08:43:33;;;;;;;;;;;20.40;38.20;;;;;;5071934;28;20015;-56
2021/12/06 08:46:01;;;;;;;;;;;20.40;38.20;;;;;;5067424;28;19929;-52
2021/12/06 08:48:28;;;;;;;;;;;20.40;38.20;;;;;;5050595;28;19959;-57
2021/12/06 08:50:55;;;;;;;;;;;20.40;38.30;;;;;;5074244;28;20365;-51
2021/12/06 08:53:22;;;;;;;;;;;20.40;38.80;;;;;;5068781;28;19928;-54
2021/12/06 08:55:49;;;;;;;;;;;20.40;38.20;;;;;;5073155;28;19929;-48
2021/12/06 08:58:18;;;;;;;;;;;20.40;38.30;;;;;;5052495;28;19936;-54
2021/12/06 09:00:46;;;;;;;;;;;20.40;38.30;;;;;;5083331;28;19959;-53
2021/12/06 09:03:13;;;;;;;;;;;20.40;38.30;;;;;;5062149;28;19925;-49
2021/12/06 09:05:41;;;;;;;;;;;20.40;38.30;;;;;;5055009;28;19937;-52
2021/12/06 09:08:08;;;;;;;;;;;20.40;38.30;;;;;;5068131;28;20334;-54
2021/12/06 09:10:35;;;;;;;;;;;20.40;38.40;;;;;;5069837;28;19925;-52
2021/12/06 09:13:02;;;;;;;;;;;20.40;38.40;;;;;;5051185;28;19925;-49
2021/12/06 09:15:30;;;;;;;;;;;20.40;38.40;;;;;;5068458;28;19976;-52
2021/12/06 09:17:56;;;;;;;;;;;20.40;38.40;;;;;;5064968;28;19952;-53
2021/12/06 09:20:24;;;;;;;;;;;20.40;38.40;;;;;;5066822;28;19984;-49
2021/12/06 09:22:51;;;;;;;;;;;20.40;38.40;;;;;;5058298;28;20028;-50
2021/12/06 09:25:18;;;;;;;;;;;20.40;38.40;;;;;;5053742;28;19939;-51
2021/12/06 09:27:45;;;;;;;;;;;20.50;38.50;;;;;;5080413;28;19979;-51
2021/12/06 09:30:13;;;;;;;;;;;20.50;38.50;;;;;;5071891;28;20354;-51
2021/12/06 09:32:42;;;;;;;;;;;20.50;38.50;;;;;;5055669;28;19932;-56
2021/12/06 09:35:11;;;;;;;;;;;20.50;38.50;;;;;;5065998;28;20038;-49
2021/12/06 09:37:39;;;;;;;;;;;20.50;34.40;;;;;;5064738;28;19955;-50
2021/12/06 09:40:06;;;;;;;;;;;20.30;31.20;;;;;;5052611;28;20340;-50
2021/12/06 09:42:36;;;;;;;;;;;20.20;32.90;;;;;;5074288;28;19971;-50
2021/12/06 09:45:03;;;;;;;;;;;20.10;33.90;;;;;;5053246;28;19925;-55
2021/12/06 09:47:31;;;;;;;;;;;20.10;34.80;;;;;;5072142;28;20288;-48
2021/12/06 09:50:00;;;;;;;;;;;20.10;35.50;;;;;;5053536;28;19928;-50
2021/12/06 09:52:26;;;;;;;;;;;20.00;35.80;;;;;;5068366;28;19935;-52
2021/12/06 09:54:53;;;;;;;;;;;20.00;36.10;;;;;;5081579;28;19935;-54
2021/12/06 09:57:20;;;;;;;;;;;20.00;36.40;;;;;;5071645;28;20012;-51
2021/12/06 09:59:46;;;;;;;;;;;20.00;36.60;;;;;;5051241;28;19925;-48
2021/12/06 10:02:15;;;;;;;;;;;20.10;36.90;;;;;;5057486;28;20008;-53
2021/12/06 10:04:46;;;;;;;;;;;20.10;37.00;;;;;;5063604;28;19959;-51
2021/12/06 10:07:14;;;;;;;;;;;20.10;37.00;;;;;;5056921;28;19936;-48
2021/12/06 10:09:41;;;;;;;;;;;20.10;37.10;;;;;;5058603;28;19925;-53
2021/12/06 10:12:08;;;;;;;;;;;20.20;37.30;;;;;;5070002;28;20019;-56
2021/12/06 10:14:36;;;;;;;;;;;20.20;37.40;;;;;;5065809;28;19944;-52
2021/12/06 10:17:03;;;;;;;;;;;20.20;37.40;;;;;;5071075;28;19947;-51
2021/12/06 10:19:30;;;;;;;;;;;20.20;37.40;;;;;;5069420;28;19990;-52
2021/12/06 10:21:57;;;;;;;;;;;20.20;37.60;;;;;;5053822;28;19932;-49
2021/12/06 10:24:26;;;;;;;;;;;20.20;37.60;;;;;;5071974;28;20023;-51
2021/12/06 10:27:03;;;;;;;;;;;20.30;37.70;;;;;;5050976;28;19928;-50
2021/12/06 10:29:34;;;;;;;;;;;20.30;37.70;;;;;;5049051;28;19929;-48
2021/12/06 10:32:01;;;;;;;;;;;20.30;37.80;;;;;;5053048;28;20370;-50
2021/12/06 10:34:29;;;;;;;;;;;20.30;37.80;;;;;;5080868;28;19998;-53
2021/12/06 10:36:56;;;;;;;;;;;20.30;37.90;;;;;;5050175;28;19925;-47
2021/12/06 10:39:23;;;;;;;;;;;20.30;37.90;;;;;;5072486;28;19924;-51
2021/12/06 10:41:52;;;;;;;;;;;20.30;37.90;;;;;;5063931;28;19960;-47
2021/12/06 10:44:19;;;;;;;;;;;20.30;37.90;;;;;;5069436;28;19924;-52
2021/12/06 10:46:50;;;;;;;;;;;20.30;38.00;;;;;;5070773;28;19943;-55
2021/12/06 10:49:17;;;;;;;;;;;20.30;38.00;;;;;;5086951;28;19925;-51
2021/12/06 10:51:44;;;;;;;;;;;20.30;38.00;;;;;;5086334;28;19931;-50
2021/12/06 10:54:17;;;;;;;;;;;20.30;38.60;;;;;;5067219;28;19935;-53
2021/12/06 10:56:46;;;;;;;;;;;20.30;38.00;;;;;;5066191;28;19939;-53
2021/12/06 10:59:16;;;;;;;;;;;20.40;38.10;;;;;;5054814;28;20297;-54
2021/12/06 11:01:43;;;;;;;;;;;20.40;38.20;;;;;;5066397;28;19925;-55
2021/12/06 11:04:12;;;;;;;;;;;20.40;38.20;;;;;;5051476;28;19929;-54
2021/12/06 11:06:42;;;;;;;;;;;20.40;38.20;;;;;;5045529;28;20024;-54
2021/12/06 11:09:10;;;;;;;;;;;20.40;38.20;;;;;;5080140;28;19931;-56
2021/12/06 11:11:38;;;;;;;;;;;20.40;38.30;;;;;;5065585;28;19960;-56
2021/12/06 11:14:06;;;;;;;;;;;20.40;38.30;;;;;;5049759;28;19979;-53
2021/12/06 11:16:34;;;;;;;;;;;20.40;38.30;;;;;;5051495;28;20020;-49
2021/12/06 11:19:03;;;;;;;;;;;20.50;38.40;;;;;;5054669;28;20329;-54
2021/12/06 11:21:33;;;;;;;;;;;20.50;38.40;;;;;;5067279;28;20016;-48
2021/12/06 11:24:16;;;;;;;;;;;20.50;38.40;;;;;;5068147;28;19929;-56
2021/12/06 11:26:45;;;;;;;;;;;20.50;38.40;;;;;;5053926;28;19925;-54
2021/12/06 11:29:13;;;;;;;;;;;20.50;38.40;;;;;;5065140;28;20007;-57
2021/12/06 11:31:43;;;;;;;;;;;20.50;38.40;;;;;;5085141;28;20297;-50
2021/12/06 11:34:09;;;;;;;;;;;20.50;38.40;;;;;;5069236;28;20028;-54
2021/12/06 11:36:39;;;;;;;;;;;20.50;38.50;;;;;;5070531;28;20018;-51
2021/12/06 11:39:07;;;;;;;;;;;20.50;38.50;;;;;;5053025;28;19929;-52
2021/12/06 11:41:33;;;;;;;;;;;20.50;38.50;;;;;;5059912;28;19929;-48
2021/12/06 11:44:01;;;;;;;;;;;20.50;38.50;;;;;;5055766;28;19925;-49
2021/12/06 11:46:29;;;;;;;;;;;20.50;38.50;;;;;;5072356;28;20374;-51
2021/12/06 11:48:57;;;;;;;;;;;20.50;38.50;;;;;;5069115;28;20279;-53
2021/12/06 11:51:25;;;;;;;;;;;20.50;38.50;;;;;;5068185;28;19964;-53
2021/12/06 11:53:52;;;;;;;;;;;20.50;38.60;;;;;;5056059;28;20365;-48
2021/12/06 11:56:20;;;;;;;;;;;20.50;38.60;;;;;;5053725;28;20246;-48
2021/12/06 11:58:47;;;;;;;;;;;20.50;38.60;;;;;;5055237;28;19933;-49
2021/12/06 12:01:15;;;;;;;;;;;20.50;38.60;;;;;;5065526;28;20019;-53
2021/12/06 12:03:43;;;;;;;;;;;20.50;38.50;;;;;;5052816;28;19929;-52
2021/12/06 12:06:25;;;;;;;;;;;20.50;38.60;;;;;;5060031;28;19928;-49
2021/12/06 12:09:01;;;;;;;;;;;20.50;38.60;;;;;;5068117;28;19971;-53
2021/12/06 12:11:28;;;;;;;;;;;20.50;38.60;;;;;;5051634;28;19982;-50
2021/12/06 12:13:56;;;;;;;;;;;20.60;38.70;;;;;;5053687;28;19931;-49
2021/12/06 12:16:23;;;;;;;;;;;20.50;38.70;;;;;;5070792;28;19979;-49
2021/12/06 12:18:50;;;;;;;;;;;20.50;38.60;;;;;;5067065;28;20400;-54
2021/12/06 12:21:17;;;;;;;;;;;20.50;38.70;;;;;;5088084;28;19986;-53
2021/12/06 12:23:46;;;;;;;;;;;20.60;38.70;;;;;;5069746;28;19931;-49
2021/12/06 12:26:15;;;;;;;;;;;20.60;38.80;;;;;;5075332;28;19931;-48
2021/12/06 12:28:51;;;;;;;;;;;20.60;38.80;;;;;;5087626;28;20408;-51
2021/12/06 12:31:18;;;;;;;;;;;20.60;38.80;;;;;;5068000;28;19932;-51
2021/12/06 12:33:46;;;;;;;;;;;20.60;38.80;;;;;;5084334;28;19929;-51
2021/12/06 12:36:14;;;;;;;;;;;20.60;38.80;;;;;;5066863;28;19925;-52
2021/12/06 12:38:43;;;;;;;;;;;20.60;38.80;;;;;;5068981;28;19929;-51
2021/12/06 12:41:12;;;;;;;;;;;20.60;38.80;;;;;;5053375;28;19982;-49
2021/12/06 12:43:39;;;;;;;;;;;20.60;38.80;;;;;;5054596;28;19932;-56
2021/12/06 12:46:07;;;;;;;;;;;20.60;38.90;;;;;;5056248;28;20030;-46
2021/12/06 12:48:44;;;;;;;;;;;20.60;38.90;;;;;;5053921;28;19933;-53
2021/12/06 12:51:11;;;;;;;;;;;20.60;38.90;;;;;;5067818;28;20023;-51
2021/12/06 12:53:46;;;;;;;;;;;20.60;38.90;;;;;;5072151;28;19964;-52
2021/12/06 12:56:22;;;;;;;;;;;20.50;34.90;;;;;;5081853;28;20488;-52
2021/12/06 12:58:50;;;;;;;;;;;20.40;30.30;;;;;;5081115;28;20325;-48
2021/12/06 13:01:17;;;;;;;;;;;20.20;29.30;;;;;;5064316;28;20332;-50
2021/12/06 13:03:44;;;;;;;;;;;20.00;30.80;;;;;;5077393;28;19924;-52
2021/12/06 13:06:18;;;;;;;;;;;19.80;33.50;;;;;;5066444;28;20474;-48
2021/12/06 13:08:45;;;;;;;;;;;19.80;35.00;;;;;;5067246;28;20383;-49
2021/12/06 13:11:11;;;;;;;;;;;19.70;35.80;;;;;;5062135;28;19925;-58
2021/12/06 13:13:43;;;;;;;;;;;19.70;36.20;;;;;;5052161;28;20419;-50
2021/12/06 13:16:29;;;;;;;;;;;19.80;36.50;;;;;;5066213;28;19932;-53
2021/12/06 13:19:08;;;;;;;;;;;19.80;36.80;;;;;;5062912;28;19944;-52
2021/12/06 13:21:47;;;;;;;;;;;19.80;37.00;;;;;;5087585;28;19928;-52
2021/12/06 13:24:33;;;;;;;;;;;19.80;37.10;;;;;;5054875;28;19964;-52
2021/12/06 13:27:01;;;;;;;;;;;19.90;37.30;;;;;;5073769;28;19928;-48
2021/12/06 13:29:30;;;;;;;;;;;19.90;37.40;;;;;;5087148;28;20075;-53
2021/12/06 13:31:57;;;;;;;;;;;19.90;37.40;;;;;;5051140;28;19987;-49
2021/12/06 13:34:24;;;;;;;;;;;20.00;37.60;;;;;;5049190;28;19975;-48
2021/12/06 13:36:51;;;;;;;;;;;20.00;37.60;;;;;;5063086;28;19928;-50
2021/12/06 13:39:38;;;;;;;;;;;20.00;37.70;;;;;;5066036;28;19929;-50
2021/12/06 13:42:06;;;;;;;;;;;20.00;37.70;;;;;;5052416;28;19971;-50
2021/12/06 13:44:45;;;;;;;;;;;20.10;37.80;;;;;;5082018;28;19939;-53
2021/12/06 13:47:13;;;;;;;;;;;20.10;37.80;;;;;;5052376;28;19939;-58
2021/12/06 13:49:51;;;;;;;;;;;20.10;37.90;;;;;;5069206;28;19975;-48
2021/12/06 13:52:18;;;;;;;;;;;20.10;37.90;;;;;;5067519;28;19924;-50
2021/12/06 13:54:45;;;;;;;;;;;20.10;37.90;;;;;;5066722;28;19928;-54
2021/12/06 13:57:13;;;;;;;;;;;20.10;37.90;;;;;;5050663;28;19929;-56
2021/12/06 13:59:41;;;;;;;;;;;20.20;38.10;;;;;;5069299;28;19925;-50
2021/12/06 14:02:10;;;;;;;;;;;20.20;38.10;;;;;;5043465;28;19933;-50
2021/12/06 14:04:37;;;;;;;;;;;20.20;38.20;;;;;;5072834;28;19979;-48
2021/12/06 14:07:05;;;;;;;;;;;20.20;38.10;;;;;;5059117;28;20018;-49
2021/12/06 14:09:32;;;;;;;;;;;20.20;38.20;;;;;;5069922;28;20399;-48
2021/12/06 14:12:00;;;;;;;;;;;20.20;38.30;;;;;;5080316;28;19932;-48
2021/12/06 14:14:27;;;;;;;;;;;20.20;38.30;;;;;;5069751;28;20011;-47
2021/12/06 14:16:54;;;;;;;;;;;20.20;38.30;;;;;;5049454;28;19971;-49
2021/12/06 14:19:24;;;;;;;;;;;20.30;38.40;;;;;;5068834;28;20374;-48
2021/12/06 14:21:52;;;;;;;;;;;20.30;38.30;;;;;;5069824;28;19982;-51
2021/12/06 14:24:18;;;;;;;;;;;20.30;38.40;;;;;;5070309;28;19940;-49
2021/12/06 14:26:45;;;;;;;;;;;20.30;38.40;;;;;;5068389;28;20016;-51
2021/12/06 14:29:12;;;;;;;;;;;20.30;38.40;;;;;;5053250;28;20394;-55